Time;durP1;ratioP1;P1;durP2;ratioP2;P2;SDS_P1;SDS_P2;PMS_P1;PMS_P2;Temp;Humidity;BMP_temperature;BMP_pressure;BME280_temperature;BME280_humidity;BME280_pressure;Samples;Min_cycle;Max_cycle;Signal;HPM_P1;HPM_P2
2022/12/28 00:00:46;;;;;;;14.90;8.07;;;1.00;99.90;;;;;;6220120;23;20044;-86
2022/12/28 00:03:33;;;;;;;14.02;8.02;;;1.10;99.90;;;;;;6221626;23;20056;-86
2022/12/28 00:06:27;;;;;;;11.73;7.40;;;1.10;99.90;;;;;;6218600;23;20024;-87
2022/12/28 00:09:17;;;;;;;23.27;7.72;;;1.10;99.90;;;;;;6215804;23;20043;-85
2022/12/28 00:12:07;;;;;;;;;;;1.00;99.90;;;;;;6219565;23;20440;-87
2022/12/28 00:14:55;;;;;;;11.40;7.07;;;1.00;99.90;;;;;;6219847;23;19962;-87
2022/12/28 00:17:43;;;;;;;15.10;7.28;;;1.10;99.90;;;;;;6218411;23;20032;-87
2022/12/28 00:20:32;;;;;;;9.05;7.05;;;1.10;99.90;;;;;;6219514;23;20028;-86
2022/12/28 00:23:21;;;;;;;12.32;7.28;;;1.10;99.90;;;;;;6217992;23;20032;-87
2022/12/28 00:26:17;;;;;;;10.40;7.10;;;1.10;99.90;;;;;;6217310;23;20028;-86
2022/12/28 00:29:05;;;;;;;10.25;7.10;;;1.10;99.90;;;;;;6220191;23;20036;-85
2022/12/28 00:31:55;;;;;;;13.27;6.95;;;1.10;99.90;;;;;;6221351;23;20125;-86
2022/12/28 00:34:42;;;;;;;15.00;7.63;;;1.10;99.90;;;;;;6216986;23;20028;-84
2022/12/28 00:37:34;;;;;;;13.13;7.10;;;1.10;99.90;;;;;;6219784;23;20055;-86
2022/12/28 00:40:21;;;;;;;11.85;7.93;;;1.10;99.90;;;;;;6218736;23;20024;-84
2022/12/28 00:43:10;;;;;;;15.05;7.82;;;1.10;99.90;;;;;;6217842;23;20024;-85
2022/12/28 00:45:57;;;;;;;11.85;7.32;;;1.10;99.90;;;;;;6220278;23;20059;-85
2022/12/28 00:48:44;;;;;;;11.48;6.82;;;1.10;99.90;;;;;;6220663;23;20084;-85
2022/12/28 00:51:31;;;;;;;14.40;7.20;;;1.10;99.90;;;;;;6219977;23;20110;-85
2022/12/28 00:54:20;;;;;;;14.85;7.30;;;1.20;99.90;;;;;;6217498;23;20479;-85
2022/12/28 00:57:07;;;;;;;9.75;7.10;;;1.30;99.90;;;;;;6233010;23;20032;-86
2022/12/28 00:59:55;;;;;;;9.40;6.85;;;1.30;99.90;;;;;;6232867;23;20100;-87
2022/12/28 01:02:42;;;;;;;11.38;6.80;;;1.40;99.90;;;;;;6235450;23;20032;-84
2022/12/28 01:05:29;;;;;;;12.35;6.80;;;1.30;99.90;;;;;;6234364;23;20028;-85
2022/12/28 01:08:16;;;;;;;9.15;5.72;;;1.30;99.90;;;;;;6238717;23;20029;-83
2022/12/28 01:11:12;;;;;;;10.82;6.05;;;1.30;99.90;;;;;;6243838;23;20012;-83
2022/12/28 01:14:05;;;;;;;9.90;5.75;;;1.40;99.90;;;;;;6243302;23;20027;-85
2022/12/28 01:16:55;;;;;;;13.90;5.78;;;1.40;99.90;;;;;;6240075;23;20024;-85
2022/12/28 01:19:42;;;;;;;8.82;5.30;;;1.50;99.90;;;;;;6235530;23;20055;-85
2022/12/28 01:22:36;;;;;;;11.77;5.25;;;1.50;99.90;;;;;;6236808;23;20024;-84
2022/12/28 01:25:23;;;;;;;9.73;4.82;;;1.60;99.90;;;;;;6236118;23;20024;-85
2022/12/28 01:28:10;;;;;;;8.40;5.15;;;1.60;99.90;;;;;;6236898;23;20020;-85
2022/12/28 01:31:03;;;;;;;11.70;4.97;;;1.60;99.90;;;;;;6232000;23;20087;-86
2022/12/28 01:33:50;;;;;;;9.63;4.93;;;1.70;99.90;;;;;;6241404;23;20017;-86
2022/12/28 01:36:38;;;;;;;7.25;4.40;;;1.80;99.90;;;;;;6240296;23;20024;-86
2022/12/28 01:39:25;;;;;;;5.47;4.20;;;1.80;99.90;;;;;;6237889;23;20056;-86
2022/12/28 01:42:17;;;;;;;7.15;4.28;;;1.80;99.90;;;;;;6227490;23;20080;-86
2022/12/28 01:45:22;;;;;;;8.20;3.92;;;1.90;99.90;;;;;;6222907;23;20032;-87
2022/12/28 01:48:19;;;;;;;6.13;3.60;;;2.00;99.90;;;;;;6224468;22;20021;-86
2022/12/28 01:51:08;;;;;;;9.45;3.63;;;2.00;99.90;;;;;;6217769;23;20048;-87
2022/12/28 01:53:58;;;;;;;9.90;3.65;;;2.10;99.90;;;;;;6216904;23;20412;-87
2022/12/28 01:56:47;;;;;;;8.57;3.28;;;2.20;99.90;;;;;;6218873;23;20029;-84
2022/12/28 01:59:39;;;;;;;6.93;3.47;;;2.20;99.90;;;;;;6219196;23;20087;-86
2022/12/28 02:02:31;;;;;;;5.80;3.35;;;2.20;99.90;;;;;;6215698;23;20036;-85
2022/12/28 02:05:20;;;;;;;6.65;3.58;;;2.30;99.90;;;;;;6216644;23;20336;-83
2022/12/28 02:08:37;;;;;;;5.90;2.95;;;2.30;99.90;;;;;;6214693;23;20432;-85
2022/12/28 02:11:24;;;;;;;6.38;3.55;;;2.40;99.90;;;;;;6217697;23;20024;-83
2022/12/28 02:14:13;;;;;;;6.93;3.58;;;2.50;99.90;;;;;;6216564;23;20099;-87
2022/12/28 02:17:01;;;;;;;5.30;2.67;;;2.50;99.90;;;;;;6215135;23;20086;-85
2022/12/28 02:19:48;;;;;;;5.18;2.80;;;2.50;99.90;;;;;;6218278;23;20111;-85
2022/12/28 02:23:10;;;;;;;4.43;2.55;;;2.60;99.90;;;;;;6220301;22;20044;-84
2022/12/28 02:26:37;;;;;;;3.92;2.72;;;2.70;25.00;;;;;;6219858;22;20046;-86
2022/12/28 02:29:42;;;;;;;5.38;2.38;;;2.70;1.00;;;;;;6216228;23;20416;-85
2022/12/28 02:32:29;;;;;;;5.82;2.90;;;2.70;99.90;;;;;;6243331;23;20031;-85
2022/12/28 02:35:38;;;;;;;4.57;3.10;;;2.70;99.90;;;;;;6230040;23;20024;-86
2022/12/28 02:38:40;;;;;;;7.65;3.63;;;2.70;55.90;;;;;;6233864;23;20068;-86
2022/12/28 02:41:29;;;;;;;5.80;2.90;;;2.70;1.00;;;;;;6248689;23;20028;-87
2022/12/28 02:50:04;;;;;;;5.85;2.97;;;2.60;99.90;;;;;;6206653;23;20025;-86
2022/12/28 02:51:07;;;;;;;4.13;3.10;;;2.70;1.00;;;;;;6222567;23;20040;-87
2022/12/28 02:54:00;;;;;;;5.82;2.85;;;2.70;99.90;;;;;;6232718;22;20024;-86
2022/12/28 02:57:27;;;;;;;3.80;2.50;;;2.70;1.00;;;;;;6224214;22;20031;-87
2022/12/28 03:00:19;;;;;;;6.40;2.75;;;2.80;99.90;;;;;;6193595;23;20431;-86
2022/12/28 03:03:17;;;;;;;3.63;2.87;;;2.90;99.90;;;;;;6223288;22;20031;-86
2022/12/28 03:09:48;;;;;;;4.03;2.78;;;2.90;99.90;;;;;;6220464;23;20052;-86
2022/12/28 03:13:00;;;;;;;5.10;2.78;;;2.90;99.90;;;;;;6219374;23;20343;-85
2022/12/28 03:15:50;;;;;;;2.67;2.07;;;2.90;1.00;;;;;;6185763;23;20028;-85
2022/12/28 03:31:16;;;;;;;4.57;2.42;;;3.10;1.00;;;;;;6217786;23;20075;-85
2022/12/28 03:34:07;;;;;;;6.25;2.80;;;3.10;1.00;;;;;;6216308;23;20102;-87
2022/12/28 03:37:16;;;;;;;7.90;3.08;;;3.20;99.90;;;;;;6216751;23;20035;-87
2022/12/28 03:40:15;;;;;;;4.72;2.65;;;3.10;99.90;;;;;;6218635;23;20020;-86
2022/12/28 03:43:41;;;;;;;8.57;3.03;;;3.20;99.90;;;;;;6214221;23;20084;-85
2022/12/28 03:46:51;;;;;;;3.97;2.58;;;3.20;99.90;;;;;;6215644;23;20126;-88
2022/12/28 03:49:39;;;;;;;6.30;2.70;;;3.20;20.20;;;;;;6217585;23;20074;-85
2022/12/28 03:52:27;;;;;;;3.75;2.50;;;3.20;1.00;;;;;;6215339;23;20509;-86
2022/12/28 03:55:14;;;;;;;3.72;2.67;;;3.30;1.00;;;;;;6219190;23;20091;-86
2022/12/28 03:58:04;;;;;;;2.90;2.38;;;3.30;1.00;;;;;;6214554;23;20128;-87
2022/12/28 04:00:51;;;;;;;4.13;2.38;;;3.30;1.00;;;;;;6215208;23;20387;-87
2022/12/28 04:03:39;;;;;;;3.65;2.35;;;3.20;1.00;;;;;;6216966;23;20024;-87
2022/12/28 04:06:28;;;;;;;4.55;2.50;;;3.20;1.00;;;;;;6215357;23;20368;-86
2022/12/28 04:09:18;;;;;;;16.42;3.88;;;3.20;1.00;;;;;;6214628;23;20381;-86
2022/12/28 04:12:11;;;;;;;6.35;2.80;;;3.20;1.00;;;;;;6216458;23;20028;-87
2022/12/28 04:14:58;;;;;;;4.60;2.92;;;3.20;1.00;;;;;;6219297;22;20029;-86
2022/12/28 04:17:48;;;;;;;3.03;2.20;;;3.20;1.00;;;;;;6215187;23;20175;-86
2022/12/28 04:20:35;;;;;;;4.95;3.03;;;3.30;1.00;;;;;;6216814;23;20025;-87
2022/12/28 04:23:22;;;;;;;5.70;2.60;;;3.20;1.00;;;;;;6217031;23;20428;-87
2022/12/28 04:26:12;;;;;;;3.67;2.75;;;3.20;99.90;;;;;;6215173;23;20025;-86
2022/12/28 04:29:01;;;;;;;3.65;2.47;;;3.20;99.90;;;;;;6215833;23;20025;-88
2022/12/28 04:31:48;;;;;;;6.97;2.78;;;3.20;1.00;;;;;;6215328;23;20079;-87
2022/12/28 04:34:35;;;;;;;2.95;2.60;;;3.20;1.00;;;;;;6214996;23;20106;-87
2022/12/28 04:37:22;;;;;;;3.88;2.67;;;3.20;1.00;;;;;;6218458;23;20488;-87
2022/12/28 04:40:09;;;;;;;3.63;2.55;;;3.10;1.00;;;;;;6217533;23;20114;-86
2022/12/28 04:42:57;;;;;;;4.78;2.58;;;3.10;1.00;;;;;;6215113;23;20052;-86
2022/12/28 04:45:55;;;;;;;2.60;2.30;;;3.00;1.00;;;;;;6217494;23;20087;-86
2022/12/28 04:48:47;;;;;;;3.90;2.75;;;3.00;1.00;;;;;;6216689;23;20031;-87
2022/12/28 04:51:37;;;;;;;4.63;2.45;;;3.00;11.60;;;;;;6215615;23;20471;-87
2022/12/28 04:54:24;;;;;;;4.68;2.90;;;3.00;90.50;;;;;;6217457;23;20300;-86
2022/12/28 04:57:12;;;;;;;4.35;2.55;;;3.00;99.90;;;;;;6216600;23;20020;-86
2022/12/28 05:00:02;;;;;;;6.85;2.83;;;3.10;99.90;;;;;;6214874;23;20025;-86
2022/12/28 05:02:50;;;;;;;3.17;2.80;;;3.10;99.90;;;;;;6234565;23;20096;-87
2022/12/28 05:05:37;;;;;;;7.95;3.65;;;3.20;99.90;;;;;;6214544;23;20093;-88
2022/12/28 05:08:24;;;;;;;3.70;2.63;;;3.20;99.90;;;;;;6216027;23;20028;-88
2022/12/28 05:11:18;;;;;;;5.45;2.70;;;3.10;98.10;;;;;;6215779;23;20025;-86
2022/12/28 05:14:05;;;;;;;4.25;2.47;;;3.20;99.70;;;;;;6216297;23;20083;-86
2022/12/28 05:16:52;;;;;;;3.33;2.40;;;3.20;86.20;;;;;;6214868;23;20025;-86
2022/12/28 05:19:39;;;;;;;5.55;2.58;;;3.20;81.40;;;;;;6216012;23;20078;-87
2022/12/28 05:22:29;;;;;;;7.32;2.67;;;3.20;83.10;;;;;;6214984;23;20088;-89
2022/12/28 05:25:21;;;;;;;4.78;2.33;;;3.20;92.90;;;;;;6215849;23;20032;-87
2022/12/28 05:28:10;;;;;;;2.80;2.38;;;3.20;91.90;;;;;;6215623;23;20025;-87
2022/12/28 05:31:03;;;;;;;5.78;2.30;;;3.20;67.80;;;;;;6213606;23;20024;-86
2022/12/28 05:33:56;;;;;;;4.50;2.58;;;3.30;51.80;;;;;;6217364;23;20025;-87
2022/12/28 05:36:43;;;;;;;4.82;2.50;;;3.30;31.40;;;;;;6219079;23;20075;-87
2022/12/28 05:39:31;;;;;;;4.07;2.20;;;3.30;7.30;;;;;;6220099;22;20083;-87
2022/12/28 05:42:19;;;;;;;2.60;2.00;;;3.40;1.00;;;;;;6216132;23;20447;-86
2022/12/28 05:45:06;;;;;;;3.50;2.08;;;3.50;1.00;;;;;;6217904;23;20428;-86
2022/12/28 05:47:54;;;;;;;2.92;2.45;;;3.50;1.00;;;;;;6218931;23;20021;-85
2022/12/28 05:50:41;;;;;;;4.85;2.70;;;3.50;1.00;;;;;;6219431;23;20405;-85
2022/12/28 05:53:31;;;;;;;5.45;2.13;;;3.50;99.90;;;;;;6217441;23;20411;-86
2022/12/28 05:56:27;;;;;;;3.97;2.65;;;3.50;99.90;;;;;;6219369;23;20021;-87
2022/12/28 05:59:17;;;;;;;7.18;2.10;;;3.60;99.90;;;;;;6219292;23;20025;-86
2022/12/28 06:02:05;;;;;;;3.75;2.33;;;3.60;99.90;;;;;;6219551;23;20031;-86
2022/12/28 06:04:53;;;;;;;2.45;2.22;;;3.70;99.90;;;;;;6219893;23;20103;-87
2022/12/28 06:07:40;;;;;;;4.88;2.60;;;3.70;99.90;;;;;;6216194;23;20056;-87
2022/12/28 06:10:27;;;;;;;3.75;2.80;;;3.70;99.90;;;;;;6214171;23;20055;-86
2022/12/28 06:13:15;;;;;;;4.70;2.67;;;3.70;99.90;;;;;;6217200;23;20035;-86
2022/12/28 06:16:13;;;;;;;8.18;3.10;;;3.80;39.90;;;;;;6218820;22;20119;-85
2022/12/28 06:19:06;;;;;;;6.57;2.78;;;3.80;1.00;;;;;;6217046;23;20051;-85
2022/12/28 06:21:53;;;;;;;5.32;3.10;;;3.80;1.00;;;;;;6217748;23;20025;-85
2022/12/28 06:24:43;;;;;;;6.95;2.55;;;3.70;1.00;;;;;;6217396;23;20439;-84
2022/12/28 06:27:30;;;;;;;3.30;2.67;;;3.70;1.00;;;;;;6215918;23;20044;-85
2022/12/28 06:30:17;;;;;;;7.63;3.00;;;3.80;1.00;;;;;;6217772;23;20052;-84
2022/12/28 06:33:06;;;;;;;4.55;2.72;;;3.90;1.00;;;;;;6216169;23;20032;-86
2022/12/28 06:35:53;;;;;;;8.52;3.05;;;3.80;1.00;;;;;;6214639;23;20032;-85
2022/12/28 06:38:40;;;;;;;7.07;3.33;;;3.90;1.00;;;;;;6217496;23;20032;-84
2022/12/28 06:41:28;;;;;;;6.40;3.03;;;3.80;1.00;;;;;;6217556;23;20025;-85
2022/12/28 06:44:16;;;;;;;8.52;4.00;;;3.90;99.90;;;;;;6213815;23;20024;-84
2022/12/28 06:47:03;;;;;;;4.32;2.92;;;3.80;99.90;;;;;;6216656;23;20025;-83
2022/12/28 06:49:50;;;;;;;4.60;3.13;;;3.80;99.90;;;;;;6208630;23;20051;-84
2022/12/28 06:52:38;;;;;;;5.85;3.50;;;3.80;99.90;;;;;;6213495;23;20032;-85
2022/12/28 07:42:05;;;;;;;;;;;;;;;;;;;;;
2022/12/28 08:07:18;;;;;;;;;;;;;;;;;;;;;
2022/12/28 08:10:39;;;;;;;;;;;;;;;;;;;;;
2022/12/28 08:13:28;;;;;;;3.63;2.30;;;4.40;99.90;;;;;;6044658;23;20023;-83
2022/12/28 08:16:39;;;;;;;2.75;1.95;;;4.40;92.00;;;;;;6051782;23;20050;-85
2022/12/28 08:22:51;;;;;;;4.15;2.15;;;4.60;1.00;;;;;;6215285;23;20020;-83
2022/12/28 08:26:15;;;;;;;;;;;;;;;;;;;;;
2022/12/28 08:29:43;;;;;;;6.50;2.90;;;4.60;1.00;;;;;;6071702;23;20101;-84
2022/12/28 08:36:49;;;;;;;2.17;1.90;;;4.70;99.90;;;;;;6065092;23;20061;-86
2022/12/28 08:48:33;;;;;;;2.55;2.08;;;5.00;99.90;;;;;;5926292;24;20025;-85
2022/12/28 10:18:13;;;;;;;5.47;1.90;;;7.50;20.60;;;;;;6278223;22;20011;-86
2022/12/28 11:18:38;;;;;;;2.72;1.80;;;8.00;1.00;;;;;;6275384;22;20087;-85
2022/12/28 11:21:30;;;;;;;4.70;1.77;;;7.90;1.00;;;;;;6277000;22;20038;-85
2022/12/28 11:24:41;;;;;;;2.75;1.50;;;7.80;1.00;;;;;;6253438;22;20132;-86
2022/12/28 11:27:54;;;;;;;4.70;1.63;;;7.80;1.00;;;;;;6254528;22;20030;-86
2022/12/28 11:30:53;;;;;;;3.20;1.50;;;8.00;1.00;;;;;;6109902;22;20021;-85
2022/12/28 11:33:55;;;;;;;2.35;1.60;;;8.30;1.00;;;;;;6257278;22;20015;-83
2022/12/28 11:37:51;;;;;;;3.95;1.98;;;8.40;1.00;;;;;;6256915;22;20406;-86
2022/12/28 11:40:55;;;;;;;2.72;1.83;;;8.90;1.00;;;;;;6125897;23;20053;-83
2022/12/28 11:44:38;;;;;;;4.25;1.95;;;8.60;1.00;;;;;;6105626;23;20026;-85
2022/12/28 11:48:17;;;;;;;3.63;1.42;;;9.30;1.00;;;;;;6080774;23;20040;-84
2022/12/28 11:52:33;;;;;;;4.70;1.90;;;9.90;1.00;;;;;;6097020;23;20436;-83
2022/12/28 11:56:17;;;;;;;1.77;1.33;;;11.00;1.00;;;;;;6096149;23;20505;-84
2022/12/28 11:59:28;;;;;;;7.93;1.90;;;11.80;99.90;;;;;;6100909;23;20267;-83
2022/12/28 12:35:21;;;;;;;5.72;2.25;;;8.10;1.00;;;;;;5109842;27;20873;-86
2022/12/28 12:39:04;;;;;;;1.83;1.42;;;7.90;1.00;;;;;;5105955;27;20362;-90
2022/12/28 12:42:23;;;;;;;3.30;1.70;;;7.90;1.00;;;;;;5092957;28;20051;-88
2022/12/28 12:45:50;;;;;;;4.13;2.25;;;8.00;1.00;;;;;;5090462;28;20050;-89
2022/12/28 12:49:26;;;;;;;3.03;1.60;;;8.00;1.00;;;;;;5099094;28;20132;-88
2022/12/28 12:52:44;;;;;;;5.95;2.00;;;8.10;1.00;;;;;;5101091;28;20047;-89
2022/12/28 12:55:51;;;;;;;4.43;2.38;;;8.10;1.00;;;;;;5088601;28;20040;-90
2022/12/28 12:59:19;;;;;;;4.05;2.03;;;8.20;1.00;;;;;;5087249;28;20085;-87
2022/12/28 13:02:24;;;;;;;4.28;2.22;;;8.10;1.00;;;;;;5090737;28;20073;-88
2022/12/28 13:05:21;;;;;;;4.10;2.05;;;8.10;1.00;;;;;;5102617;28;20039;-88
2022/12/28 13:08:31;;;;;;;6.88;2.63;;;8.00;1.00;;;;;;5071508;28;20145;-87
2022/12/28 13:12:06;;;;;;;2.38;2.15;;;8.00;1.00;;;;;;5071909;28;20120;-84
2022/12/28 13:15:17;;;;;;;2.95;1.95;;;8.00;1.00;;;;;;4972429;28;20839;-85
2022/12/28 13:18:30;;;;;;;6.40;2.40;;;8.00;1.00;;;;;;4962245;28;20043;-86
2022/12/28 13:21:44;;;;;;;2.67;2.15;;;7.90;1.00;;;;;;5077478;28;20047;-86
2022/12/28 13:24:44;;;;;;;5.57;2.70;;;7.90;1.00;;;;;;5077664;28;20051;-85
2022/12/28 13:27:35;;;;;;;4.70;2.35;;;7.80;1.00;;;;;;5068296;28;20127;-88
2022/12/28 13:30:26;;;;;;;3.15;1.73;;;7.80;1.00;;;;;;5071946;28;20128;-88
2022/12/28 13:33:20;;;;;;;4.18;2.20;;;7.70;1.00;;;;;;5068604;28;20036;-87
2022/12/28 13:36:18;;;;;;;3.28;2.10;;;7.70;1.00;;;;;;5065438;28;20047;-87
2022/12/28 13:39:12;;;;;;;3.88;2.17;;;7.60;1.00;;;;;;5093995;28;20113;-87
2022/12/28 13:42:23;;;;;;;4.07;2.08;;;7.60;1.00;;;;;;5086446;28;20048;-84
2022/12/28 13:45:17;;;;;;;3.92;2.35;;;7.60;1.00;;;;;;5077589;28;20059;-89
2022/12/28 13:48:07;;;;;;;2.97;2.00;;;7.50;1.00;;;;;;5063322;28;20049;-86
2022/12/28 13:50:57;;;;;;;4.18;1.85;;;7.50;1.00;;;;;;5077617;28;20076;-90
2022/12/28 13:53:59;;;;;;;3.03;2.10;;;7.50;1.00;;;;;;5072651;28;20044;-85
2022/12/28 13:56:47;;;;;;;3.92;1.90;;;7.50;1.00;;;;;;5077259;28;20222;-86
2022/12/28 13:59:35;;;;;;;4.35;1.98;;;7.60;1.00;;;;;;5062355;28;20461;-85
2022/12/28 14:02:23;;;;;;;4.10;2.10;;;7.60;1.00;;;;;;5070590;28;20045;-87
2022/12/28 14:05:17;;;;;;;4.00;2.13;;;7.60;1.00;;;;;;5072076;28;20041;-87
2022/12/28 14:08:07;;;;;;;5.05;2.55;;;7.60;1.00;;;;;;5077679;28;20049;-88
2022/12/28 14:10:55;;;;;;;3.97;2.72;;;7.60;1.00;;;;;;5055484;28;20399;-85
2022/12/28 14:13:43;;;;;;;5.05;2.45;;;7.60;1.00;;;;;;5078489;28;20040;-86
2022/12/28 14:16:32;;;;;;;4.30;2.00;;;7.60;1.00;;;;;;5072963;28;20049;-86
2022/12/28 14:19:20;;;;;;;3.38;1.98;;;7.60;1.00;;;;;;5088713;28;20049;-87
2022/12/28 14:22:31;;;;;;;4.47;2.50;;;7.60;1.00;;;;;;5075380;28;20049;-88
2022/12/28 14:25:23;;;;;;;3.30;2.10;;;7.50;1.00;;;;;;5059041;28;20513;-89
2022/12/28 14:28:42;;;;;;;4.13;2.03;;;7.50;1.00;;;;;;5077216;28;20048;-85
2022/12/28 14:31:33;;;;;;;4.05;2.20;;;7.50;1.00;;;;;;5081098;28;20040;-87
2022/12/28 14:34:25;;;;;;;5.28;2.42;;;7.50;1.00;;;;;;5065273;28;20040;-87
2022/12/28 14:37:28;;;;;;;6.95;3.28;;;7.40;1.00;;;;;;5060740;28;20047;-85
2022/12/28 14:40:29;;;;;;;3.90;2.42;;;7.40;1.00;;;;;;5073738;28;20087;-86
2022/12/28 14:43:32;;;;;;;3.67;2.33;;;7.40;1.00;;;;;;5066713;28;20036;-85
2022/12/28 14:46:36;;;;;;;3.30;2.25;;;7.50;1.00;;;;;;5067444;28;20045;-86
2022/12/28 14:49:31;;;;;;;4.88;2.00;;;7.50;1.00;;;;;;5073325;28;20139;-87
2022/12/28 14:52:20;;;;;;;3.80;2.25;;;7.50;1.00;;;;;;5045871;28;20040;-84
2022/12/28 14:55:32;;;;;;;5.68;2.30;;;7.60;1.00;;;;;;5076859;28;20041;-85
2022/12/28 14:58:44;;;;;;;7.10;2.20;;;7.80;1.00;;;;;;5075028;28;20064;-88
2022/12/28 15:01:52;;;;;;;3.47;2.05;;;7.70;1.00;;;;;;5065568;28;20045;-90
2022/12/28 15:04:40;;;;;;;4.35;2.35;;;7.50;1.00;;;;;;5082861;28;20045;-85
2022/12/28 15:07:30;;;;;;;3.78;2.30;;;7.40;1.00;;;;;;5071444;28;20068;-88
2022/12/28 15:10:17;;;;;;;3.25;2.20;;;7.30;1.00;;;;;;5101437;28;20039;-86
2022/12/28 15:13:05;;;;;;;6.10;2.80;;;7.30;1.00;;;;;;5095933;28;20056;-86
2022/12/28 15:16:00;;;;;;;4.28;2.20;;;7.20;1.00;;;;;;5085480;28;20071;-86
2022/12/28 15:18:48;;;;;;;3.47;2.20;;;7.20;1.00;;;;;;5068214;28;20123;-86
2022/12/28 15:21:36;;;;;;;8.20;2.38;;;7.20;1.00;;;;;;5082095;28;20137;-88
2022/12/28 15:24:23;;;;;;;4.45;2.20;;;7.20;1.00;;;;;;5062096;28;20056;-88
2022/12/28 15:27:19;;;;;;;5.68;2.72;;;7.30;1.00;;;;;;5108623;28;20044;-87
2022/12/28 15:30:07;;;;;;;5.80;2.65;;;7.30;1.00;;;;;;5092126;28;20063;-85
2022/12/28 15:33:00;;;;;;;4.28;2.42;;;7.20;1.00;;;;;;5084472;28;20086;-88
2022/12/28 15:35:47;;;;;;;5.45;2.72;;;7.20;1.00;;;;;;5078974;28;20480;-86
2022/12/28 15:38:35;;;;;;;7.18;3.30;;;7.10;1.00;;;;;;5081961;28;20040;-85
2022/12/28 15:44:30;;;;;;;6.88;2.75;;;7.00;1.00;;;;;;5082600;28;20040;-84
2022/12/28 15:47:20;;;;;;;4.05;2.75;;;7.00;1.00;;;;;;5076712;28;20048;-84
2022/12/28 15:50:08;;;;;;;7.95;2.95;;;6.90;1.00;;;;;;5094271;28;20059;-84
2022/12/28 15:52:58;;;;;;;3.20;2.30;;;6.90;1.00;;;;;;5079143;28;20162;-84
2022/12/28 15:56:00;;;;;;;6.97;3.75;;;7.00;1.00;;;;;;5102997;28;20122;-86
2022/12/28 15:58:48;;;;;;;4.65;2.72;;;7.00;1.00;;;;;;5093179;28;20115;-86
2022/12/28 16:01:36;;;;;;;4.50;2.95;;;7.20;1.00;;;;;;5080218;28;20456;-86
2022/12/28 16:04:23;;;;;;;2.97;2.35;;;7.10;1.00;;;;;;5075032;28;20044;-85
2022/12/28 16:07:10;;;;;;;4.10;2.55;;;7.10;1.00;;;;;;5075528;28;20369;-83
2022/12/28 16:09:57;;;;;;;3.78;2.47;;;7.10;1.00;;;;;;5072574;28;20048;-86
2022/12/28 16:12:45;;;;;;;2.35;2.15;;;7.10;1.00;;;;;;5078802;28;20044;-89
2022/12/28 16:15:33;;;;;;;2.97;2.30;;;7.10;1.00;;;;;;5077938;28;20032;-86
2022/12/28 16:18:20;;;;;;;3.67;2.60;;;7.20;1.00;;;;;;5080202;28;20464;-85
2022/12/28 16:21:09;;;;;;;3.83;3.00;;;7.20;1.00;;;;;;5082461;28;20052;-87
2022/12/28 16:24:00;;;;;;;3.95;2.63;;;7.20;1.00;;;;;;5077091;28;20113;-86
2022/12/28 16:26:48;;;;;;;3.47;2.78;;;7.20;1.00;;;;;;5071798;28;20155;-84
2022/12/28 16:29:35;;;;;;;4.32;2.63;;;7.30;1.00;;;;;;5095275;28;20130;-86
2022/12/28 16:32:23;;;;;;;5.00;3.25;;;7.30;1.00;;;;;;5096223;28;20062;-87
2022/12/28 16:35:10;;;;;;;5.82;2.72;;;7.30;1.00;;;;;;5100685;28;20032;-85
2022/12/28 16:38:06;;;;;;;4.80;3.05;;;7.40;99.90;;;;;;5091674;28;20044;-89
2022/12/28 16:41:03;;;;;;;6.03;3.13;;;7.40;99.90;;;;;;5093290;28;20064;-84
2022/12/28 16:43:51;;;;;;;5.97;3.00;;;7.40;99.90;;;;;;5095616;28;20040;-86
2022/12/28 16:46:39;;;;;;;4.95;3.08;;;7.40;99.90;;;;;;5110166;28;20059;-86
2022/12/28 16:49:27;;;;;;;3.75;2.95;;;7.30;99.90;;;;;;5121096;28;20051;-85
2022/12/28 16:52:17;;;;;;;3.25;2.60;;;7.40;99.90;;;;;;5098652;28;20111;-84
2022/12/28 16:55:04;;;;;;;2.30;2.10;;;7.30;99.90;;;;;;5122767;28;20088;-86
2022/12/28 16:57:53;;;;;;;6.25;3.58;;;7.30;99.90;;;;;;5101848;28;20048;-85
2022/12/28 17:00:40;;;;;;;9.63;3.38;;;7.30;99.90;;;;;;5104786;28;20051;-85
2022/12/28 17:03:28;;;;;;;4.63;3.00;;;7.20;99.90;;;;;;5095004;28;20052;-84
2022/12/28 17:06:18;;;;;;;7.00;3.00;;;7.20;99.90;;;;;;5105788;28;20074;-83
2022/12/28 17:09:06;;;;;;;5.13;3.47;;;7.20;99.90;;;;;;5108719;28;20100;-83
2022/12/28 17:11:54;;;;;;;4.65;3.00;;;7.20;99.90;;;;;;5107286;28;20111;-84
2022/12/28 17:14:41;;;;;;;4.53;2.70;;;7.10;99.90;;;;;;5124157;28;20043;-84
2022/12/28 17:17:30;;;;;;;3.08;2.78;;;7.20;99.90;;;;;;5095852;28;20055;-86
2022/12/28 17:20:18;;;;;;;4.35;2.58;;;7.30;99.90;;;;;;5116389;28;20055;-85
2022/12/28 17:23:07;;;;;;;2.97;2.53;;;7.20;99.90;;;;;;5105326;28;20055;-85
2022/12/28 17:25:54;;;;;;;3.50;2.72;;;7.20;99.90;;;;;;5117996;28;20044;-83
2022/12/28 17:28:42;;;;;;;3.47;2.50;;;7.30;99.90;;;;;;5091674;28;20068;-87
2022/12/28 17:31:29;;;;;;;6.38;3.42;;;7.40;99.90;;;;;;5076833;28;20052;-85
2022/12/28 17:34:16;;;;;;;5.18;2.90;;;7.40;99.90;;;;;;5098399;28;20044;-85
2022/12/28 17:37:04;;;;;;;3.75;3.10;;;7.40;99.90;;;;;;5092244;28;20048;-86
2022/12/28 17:39:51;;;;;;;7.70;4.75;;;7.40;99.90;;;;;;5082255;28;20464;-85
2022/12/28 17:42:38;;;;;;;6.45;5.28;;;7.40;99.90;;;;;;5081423;28;20032;-86
2022/12/28 17:45:26;;;;;;;5.68;5.03;;;7.30;99.90;;;;;;5081521;28;20044;-87
2022/12/28 17:48:16;;;;;;;4.18;3.25;;;7.30;99.90;;;;;;5075320;28;20048;-85
2022/12/28 17:51:08;;;;;;;4.28;3.08;;;7.30;99.90;;;;;;5081153;28;20157;-84
2022/12/28 17:53:57;;;;;;;3.55;2.60;;;7.30;99.90;;;;;;5090567;28;20055;-86
2022/12/28 17:56:47;;;;;;;4.43;2.40;;;7.30;99.90;;;;;;5091633;28;20060;-87
2022/12/28 17:59:34;;;;;;;5.35;2.50;;;7.30;99.90;;;;;;5096950;28;20055;-85
2022/12/28 18:02:22;;;;;;;4.20;2.25;;;7.30;99.90;;;;;;5070990;28;20044;-86
2022/12/28 18:05:10;;;;;;;4.32;2.30;;;7.30;99.90;;;;;;5072247;28;20044;-86
2022/12/28 18:07:57;;;;;;;3.60;2.30;;;7.30;99.90;;;;;;5095156;28;20059;-86
2022/12/28 18:10:45;;;;;;;3.25;2.60;;;7.30;99.90;;;;;;5070103;28;20087;-86
2022/12/28 18:13:37;;;;;;;2.42;2.22;;;7.20;99.90;;;;;;5086901;28;20101;-89
2022/12/28 18:16:27;;;;;;;4.88;2.38;;;7.20;99.90;;;;;;5112341;28;20047;-84
2022/12/28 18:19:16;;;;;;;4.70;3.08;;;7.20;99.90;;;;;;5096085;28;20413;-86
2022/12/28 18:22:06;;;;;;;5.88;4.75;;;7.10;99.90;;;;;;5096358;28;20044;-86
2022/12/28 18:24:54;;;;;;;3.78;2.60;;;7.10;99.90;;;;;;5066564;28;20362;-86
2022/12/28 18:27:42;;;;;;;6.47;3.78;;;7.10;99.90;;;;;;5098194;28;20055;-86
2022/12/28 18:30:31;;;;;;;4.38;3.45;;;7.00;99.90;;;;;;5087153;28;20048;-86
2022/12/28 18:33:21;;;;;;;5.78;4.13;;;7.00;99.90;;;;;;5102186;28;20068;-86
2022/12/28 18:36:11;;;;;;;6.35;3.58;;;6.90;99.90;;;;;;5082631;28;20169;-86
2022/12/28 18:39:04;;;;;;;6.32;3.40;;;6.90;99.90;;;;;;5087989;28;20073;-85
2022/12/28 18:41:51;;;;;;;5.35;4.20;;;6.90;99.90;;;;;;5104996;28;20051;-86
2022/12/28 18:44:39;;;;;;;4.13;2.90;;;6.90;99.90;;;;;;5094368;28;20458;-85
2022/12/28 18:47:26;;;;;;;7.10;3.90;;;6.90;99.90;;;;;;5096958;28;20044;-83
2022/12/28 18:50:17;;;;;;;4.45;3.00;;;6.80;99.90;;;;;;5095608;28;20119;-84
2022/12/28 18:53:08;;;;;;;5.05;3.55;;;6.80;99.90;;;;;;5067270;28;20060;-86
2022/12/28 18:56:02;;;;;;;5.25;4.07;;;6.80;99.90;;;;;;5079015;28;20047;-86
2022/12/28 18:58:57;;;;;;;5.47;3.58;;;6.70;99.90;;;;;;5090252;28;20068;-85
2022/12/28 19:01:56;;;;;;;29.75;8.13;;;6.60;99.90;;;;;;5072390;28;20068;-84
2022/12/28 19:04:56;;;;;;;8.40;4.75;;;6.70;99.90;;;;;;5074575;28;20040;-84
2022/12/28 19:07:47;;;;;;;7.25;3.33;;;6.60;99.90;;;;;;5113092;28;20039;-86
2022/12/28 19:10:39;;;;;;;5.15;3.20;;;6.60;99.90;;;;;;5092191;28;20048;-85
2022/12/28 19:13:31;;;;;;;7.03;3.63;;;6.60;99.90;;;;;;5082444;28;20059;-85
2022/12/28 19:16:20;;;;;;;5.00;3.45;;;6.50;99.90;;;;;;5085467;28;20051;-84
2022/12/28 19:19:16;;;;;;;5.25;3.80;;;6.40;99.90;;;;;;5089216;28;20077;-85
2022/12/28 19:22:05;;;;;;;7.03;4.32;;;6.30;1.00;;;;;;5095212;28;20467;-84
2022/12/28 19:24:55;;;;;;;6.50;4.18;;;6.20;1.00;;;;;;5097165;28;20048;-84
2022/12/28 19:27:42;;;;;;;5.32;3.50;;;6.20;1.00;;;;;;5062726;28;20044;-86
2022/12/28 19:30:30;;;;;;;7.97;4.22;;;6.30;1.00;;;;;;5097399;28;20059;-84
2022/12/28 19:33:19;;;;;;;7.20;4.03;;;6.30;1.00;;;;;;5095348;28;20380;-85
2022/12/28 19:36:07;;;;;;;3.58;3.25;;;6.20;1.00;;;;;;5068747;28;20048;-85
2022/12/28 19:38:58;;;;;;;5.97;4.45;;;6.10;1.00;;;;;;5080532;28;20130;-85
2022/12/28 19:41:46;;;;;;;4.82;3.75;;;6.10;1.00;;;;;;5081735;28;20036;-87
2022/12/28 19:44:35;;;;;;;5.90;3.97;;;6.10;1.00;;;;;;5069321;28;20055;-85
2022/12/28 19:47:22;;;;;;;5.82;3.55;;;6.10;1.00;;;;;;5083178;28;20469;-85
2022/12/28 19:50:11;;;;;;;7.40;4.13;;;6.10;1.00;;;;;;5083725;28;20116;-87
2022/12/28 19:53:01;;;;;;;5.22;4.05;;;6.10;1.00;;;;;;5087840;28;20126;-86
2022/12/28 19:56:06;;;;;;;6.30;4.18;;;6.20;1.00;;;;;;5075630;28;20040;-86
2022/12/28 19:58:59;;;;;;;8.38;3.83;;;6.20;1.00;;;;;;5084470;28;20532;-84
2022/12/28 20:01:53;;;;;;;9.55;5.28;;;6.10;1.00;;;;;;5102387;28;20051;-84
2022/12/28 20:04:40;;;;;;;51.88;26.40;;;6.10;1.00;;;;;;5103116;28;20106;-84
2022/12/28 20:07:28;;;;;;;10.63;6.57;;;6.10;1.00;;;;;;5077943;28;20381;-87
2022/12/28 20:10:17;;;;;;;16.85;9.35;;;6.10;1.00;;;;;;5093371;28;20054;-85
2022/12/28 20:13:05;;;;;;;6.88;4.45;;;6.30;1.00;;;;;;5088350;28;20074;-88